TFM - Tactical Decision Aid
ID: Runway Winds: CIG/VIS Threshold:

KDNL - Augusta/Daniel Fld, GA, US

Updated at: 0831 UTC 18 Sep 2021
Latest TAF at: 0533 UTC 18 Sep 2021

TAF Board

Time0753Z 18/09Z 18/10Z 18/11Z 18/12Z 18/13Z 18/14Z 18/15Z 18/16Z 18/17Z 18/18Z 18/19Z 18/20Z 18/21Z>>
Type OBS PRVL PRVL PRVL PRVL PRVL PRVL PRVL PRVL PRVL PRVL PRVL PRVL PRVL
VIS 10 >6 >6 >6 >6 >6 >6 >6 >6 >6 >6 >6 >6 >6
CIG -- 90 90 90 -- -- -- -- -- -- 50 50 50 50
Cover CLR BKN BKN BKN SCT SCT SCT SCT SCT SCT BKN BKN BKN BKN
FltCat VFR VFR VFR VFR VFR VFR VFR VFR VFR VFR VFR VFR VFR VFR
WX -- -- -- -- -- -- -- -- -- -- -- -- -- --
WDir 360 VRB VRB VRB 40 40 40 40 40 40 70 70 70 70
WSpd 4 3 3 3 4 4 4 4 4 4 5 5 5 5
WGst -- -- -- -- -- -- -- -- -- -- -- -- -- --

TDA Impact Legend

  None Marginal Slight Moderate High
Visibility (sm) >5 3≤X≤5 2≤X<3 1≤X<2 <1
Ceiling (100 ft) >30 10≤X≤30 8≤X<10 5≤X<8 <5
Wind Speed (kt) <15 15≤X<25 25≤X<30 ≥30
Wind Gust (kt) <15 15≤X<25 25≤X<35 ≥35
Weather No Wx Reported VCTS -TS,-FZRA TS,FZRA +TS,+FZRA
TAF
KDNL 180533Z 1806/1906 VRB03KT P6SM BKN090
  FM181200 04004KT P6SM SCT020
  FM181800 07005KT P6SM BKN050


METAR
KDNL 180753Z AUTO 36004KT 10SM CLR 23/22 A3011 RMK AO2 SLP189 T02330217
KDNL 180653Z AUTO 01003KT 10SM OVC090 24/22 A3011 RMK AO2 SLP191 T02390217
KDNL 180553Z AUTO 00000KT 10SM OVC090 24/22 A3011 RMK AO2 SLP190 T02440217 10278 20239 56008

Radar Display
Forecast Discussion